createdAt,value
2023-04-15T00:01:37.312Z,82.63
2023-04-15T00:04:40.153Z,82.63
2023-04-15T00:07:42.700Z,82.29
2023-04-15T00:10:46.707Z,82.91
2023-04-15T00:13:49.440Z,82.86
2023-04-15T00:16:56.274Z,83.24
2023-04-15T00:20:00.011Z,83.97
2023-04-15T00:23:04.199Z,84.38
2023-04-15T00:26:07.562Z,84.04
2023-04-15T00:29:10.390Z,84.12
2023-04-15T00:32:13.445Z,84.29
2023-04-15T00:35:16.606Z,83.96
2023-04-15T00:38:18.999Z,83.72
2023-04-15T00:41:23.084Z,83.97
2023-04-15T00:44:25.769Z,84.19
2023-04-15T00:47:30.016Z,83.76
2023-04-15T00:50:33.718Z,83.84
2023-04-15T00:53:36.367Z,84.13
2023-04-15T00:56:39.798Z,83.49
2023-04-15T00:59:42.627Z,83.13
2023-04-15T01:02:45.759Z,82.58
2023-04-15T01:05:49.417Z,82.58
2023-04-15T01:08:51.766Z,82.47
2023-04-15T01:11:54.639Z,84.30
2023-04-15T01:14:57.367Z,84.67
2023-04-15T01:18:00.404Z,84.27
2023-04-15T01:21:03.885Z,84.53
2023-04-15T01:24:10.417Z,84.39
2023-04-15T01:27:12.725Z,84.82
2023-04-15T01:30:15.614Z,84.22
2023-04-15T01:33:17.955Z,84.66
2023-04-15T01:36:21.371Z,85.25
2023-04-15T01:39:23.707Z,85.53
2023-04-15T01:42:27.750Z,85.50
2023-04-15T01:45:30.312Z,85.19
2023-04-15T01:48:33.487Z,84.95
2023-04-15T01:51:35.814Z,85.03
2023-04-15T01:54:38.433Z,84.48
2023-04-15T01:57:41.234Z,84.70
2023-04-15T02:00:44.066Z,84.84
2023-04-15T02:03:48.037Z,84.51
2023-04-15T02:06:50.862Z,84.40
2023-04-15T02:09:53.427Z,84.23
2023-04-15T02:12:55.776Z,83.91
2023-04-15T02:15:59.738Z,83.84
2023-04-15T02:19:02.592Z,83.82
2023-04-15T02:22:05.375Z,83.53
2023-04-15T02:25:09.112Z,83.59
2023-04-15T02:28:12.369Z,83.29
2023-04-15T02:31:15.113Z,83.34
2023-04-15T02:34:17.513Z,83.21
2023-04-15T02:37:20.562Z,83.36
2023-04-15T02:40:22.929Z,83.23
2023-04-15T02:43:26.236Z,82.99
2023-04-15T02:46:28.588Z,83.00
2023-04-15T02:49:31.283Z,83.02
2023-04-15T02:52:33.620Z,82.57
2023-04-15T02:55:36.406Z,82.64
2023-04-15T02:58:40.698Z,82.73
2023-04-15T03:01:43.792Z,82.69
2023-04-15T03:04:46.491Z,82.68
2023-04-15T03:07:49.252Z,82.62
2023-04-15T03:10:53.097Z,82.80
2023-04-15T03:13:55.767Z,82.90
2023-04-15T03:16:59.549Z,82.88
2023-04-15T03:20:05.079Z,82.94
2023-04-15T03:23:07.631Z,82.70
2023-04-15T03:26:10.368Z,82.97
2023-04-15T03:29:12.726Z,83.09
2023-04-15T03:32:15.897Z,83.13
2023-04-15T03:35:18.241Z,83.16
2023-04-15T03:38:21.082Z,83.80
2023-04-15T03:41:23.638Z,83.78
2023-04-15T03:44:29.279Z,83.36
2023-04-15T03:47:32.181Z,83.61
2023-04-15T03:50:34.844Z,83.77
2023-04-15T03:53:37.125Z,83.51
2023-04-15T03:56:39.813Z,83.65
2023-04-15T03:59:42.114Z,83.51
2023-04-15T04:02:46.219Z,83.61
2023-04-15T04:05:49.002Z,83.59
2023-04-15T04:08:51.290Z,83.75
2023-04-15T04:11:53.885Z,83.73
2023-04-15T04:14:56.389Z,83.69
2023-04-15T04:17:58.990Z,83.78
2023-04-15T04:21:01.573Z,83.82
2023-04-15T04:24:04.621Z,83.72
2023-04-15T04:27:07.143Z,83.77
2023-04-15T04:30:09.952Z,83.68
2023-04-15T04:33:12.424Z,83.95
2023-04-15T04:36:15.023Z,84.26
2023-04-15T04:39:17.318Z,84.31
2023-04-15T04:42:20.067Z,84.12
2023-04-15T04:45:22.752Z,84.32
2023-04-15T04:48:26.021Z,84.31
2023-04-15T04:51:28.382Z,84.17
2023-04-15T04:54:31.619Z,84.11
2023-04-15T04:57:35.897Z,83.61
2023-04-15T05:00:39.014Z,83.35
2023-04-15T05:03:41.894Z,83.04
2023-04-15T05:06:44.832Z,82.39
2023-04-15T05:09:47.482Z,82.16
2023-04-15T05:12:50.545Z,81.72
2023-04-15T05:15:53.409Z,81.79
2023-04-15T05:18:56.189Z,81.24
2023-04-15T05:21:58.473Z,80.67
2023-04-15T05:25:01.143Z,80.60
2023-04-15T05:28:03.549Z,80.96
2023-04-15T05:31:07.368Z,81.30
2023-04-15T05:34:10.401Z,81.56
2023-04-15T05:37:13.117Z,82.80
2023-04-15T05:40:15.486Z,82.74
2023-04-15T05:43:18.117Z,82.38
2023-04-15T05:46:20.581Z,82.74
2023-04-15T05:49:23.297Z,82.53
2023-04-15T05:52:25.703Z,82.39
2023-04-15T05:55:28.371Z,81.89
2023-04-15T05:58:31.434Z,81.78
2023-04-15T06:01:34.402Z,81.94
2023-04-15T06:04:37.214Z,81.99
2023-04-15T06:07:39.650Z,82.65
2023-04-15T06:10:42.333Z,82.53
2023-04-15T06:13:44.662Z,82.80
2023-04-15T06:16:47.357Z,82.47
2023-04-15T06:19:51.793Z,82.25
2023-04-15T06:22:54.575Z,81.92
2023-04-15T06:25:56.878Z,82.20
2023-04-15T06:28:59.686Z,82.42
2023-04-15T06:32:02.204Z,82.14
2023-04-15T06:35:05.616Z,81.99
2023-04-15T06:38:08.005Z,81.83
2023-04-15T06:41:10.785Z,80.42
2023-04-15T06:44:13.143Z,80.72
2023-04-15T06:47:15.959Z,79.92
2023-04-15T06:50:18.695Z,79.81
2023-04-15T06:53:22.113Z,78.14
2023-04-15T06:56:24.436Z,78.34
2023-04-15T06:59:27.433Z,77.78
2023-04-15T07:02:29.898Z,77.69
2023-04-15T07:05:32.615Z,78.00
2023-04-15T07:08:35.028Z,76.31
2023-04-15T07:11:37.691Z,74.16
2023-04-15T07:14:40.169Z,72.71
2023-04-15T07:17:45.549Z,71.68
2023-04-15T07:20:48.331Z,72.42
2023-04-15T07:23:51.191Z,73.58
2023-04-15T07:26:59.476Z,74.28
2023-04-15T07:30:03.773Z,73.28
2023-04-15T07:33:07.137Z,72.85
2023-04-15T07:36:10.779Z,71.94
2023-04-15T07:39:13.595Z,71.90
2023-04-15T07:42:17.084Z,71.15
2023-04-15T07:45:20.153Z,70.50
2023-04-15T07:48:22.848Z,70.03
2023-04-15T07:51:25.724Z,68.48
2023-04-15T07:54:28.379Z,68.82
2023-04-15T07:57:31.004Z,67.61
2023-04-15T08:00:33.675Z,67.71
2023-04-15T08:03:36.626Z,67.59
2023-04-15T08:06:40.154Z,67.48
2023-04-15T08:09:42.968Z,67.77
2023-04-15T08:12:49.134Z,68.21
2023-04-15T08:16:14.284Z,67.61
2023-04-15T08:19:17.234Z,67.12
2023-04-15T08:22:21.304Z,65.32
2023-04-15T08:25:28.017Z,64.54
2023-04-15T08:28:30.910Z,63.16
2023-04-15T08:31:33.419Z,63.21
2023-04-15T08:34:36.387Z,62.52
2023-04-15T08:37:38.701Z,60.52
2023-04-15T08:40:43.447Z,62.02
2023-04-15T08:44:07.660Z,61.55
2023-04-15T08:47:14.746Z,62.33
2023-04-15T08:50:18.057Z,63.64
2023-04-15T08:53:21.633Z,62.58
2023-04-15T08:56:28.228Z,62.49
2023-04-15T08:59:31.516Z,62.40
2023-04-15T09:02:34.001Z,62.51
2023-04-15T09:05:37.620Z,62.04
2023-04-15T09:08:40.467Z,62.07
2023-04-15T09:11:43.293Z,60.93
2023-04-15T09:14:47.284Z,59.99
2023-04-15T09:17:50.127Z,59.80
2023-04-15T09:20:53.651Z,60.04
2023-04-15T09:24:01.661Z,59.58
2023-04-15T09:27:04.428Z,58.94
2023-04-15T09:30:09.307Z,59.09
2023-04-15T09:33:14.760Z,59.58
2023-04-15T09:36:17.520Z,59.39
2023-04-15T09:39:20.188Z,59.06
2023-04-15T09:42:26.982Z,59.53
2023-04-15T09:45:30.221Z,60.60
2023-04-15T09:48:32.865Z,62.03
2023-04-15T09:51:36.056Z,62.22
2023-04-15T09:54:39.320Z,62.01
2023-04-15T09:57:41.933Z,61.57
2023-04-15T10:00:45.321Z,61.04
2023-04-15T10:03:48.484Z,62.46
2023-04-15T10:06:51.365Z,62.44
2023-04-15T10:09:55.182Z,62.36
2023-04-15T10:12:57.587Z,61.53
2023-04-15T10:16:07.841Z,62.22
2023-04-15T10:19:11.260Z,62.81
2023-04-15T10:22:15.064Z,62.59
2023-04-15T10:25:18.395Z,61.92
2023-04-15T10:28:25.203Z,63.44
2023-04-15T10:31:28.556Z,64.21
2023-04-15T10:34:32.321Z,65.77
2023-04-15T10:37:39.204Z,65.11
2023-04-15T10:40:42.318Z,64.46
2023-04-15T10:43:54.504Z,62.02
2023-04-15T10:46:58.629Z,61.13
2023-04-15T10:50:02.609Z,61.40
2023-04-15T10:53:05.753Z,62.44
2023-04-15T10:56:08.630Z,64.56
2023-04-15T10:59:12.895Z,66.39
2023-04-15T11:02:15.621Z,68.57
2023-04-15T11:05:19.562Z,68.29
2023-04-15T11:08:55.642Z,69.18
2023-04-15T11:12:10.869Z,70.35
2023-04-15T11:15:42.298Z,71.03
2023-04-15T11:18:54.816Z,71.19
2023-04-15T11:21:57.502Z,67.92
2023-04-15T11:25:00.072Z,66.84
2023-04-15T11:28:02.888Z,67.11
2023-04-15T11:31:28.627Z,66.26
2023-04-15T11:34:33.705Z,64.17
2023-04-15T11:37:37.162Z,64.15
2023-04-15T11:40:40.311Z,62.64
2023-04-15T11:43:42.937Z,62.88
2023-04-15T11:46:45.684Z,63.64
2023-04-15T11:49:48.621Z,61.76
2023-04-15T11:52:58.978Z,61.57
2023-04-15T11:56:02.008Z,63.37
2023-04-15T11:59:04.459Z,64.39
2023-04-15T12:02:14.175Z,62.90
2023-04-15T12:05:17.259Z,62.67
2023-04-15T12:08:19.741Z,65.06
2023-04-15T12:11:36.279Z,63.82
2023-04-15T12:14:40.146Z,62.51
2023-04-15T12:17:51.990Z,62.51
2023-04-15T12:20:54.695Z,63.35
2023-04-15T12:23:58.215Z,62.84
2023-04-15T12:27:04.321Z,62.85
2023-04-15T12:30:08.116Z,62.05
2023-04-15T12:33:12.534Z,62.36
2023-04-15T12:36:16.618Z,62.10
2023-04-15T12:39:22.612Z,63.90
2023-04-15T12:42:25.286Z,63.17
2023-04-15T12:45:29.463Z,63.77
2023-04-15T12:48:33.327Z,64.28
2023-04-15T12:51:35.766Z,64.26
2023-04-15T12:54:39.615Z,64.47
2023-04-15T12:57:41.888Z,63.55
2023-04-15T13:00:44.851Z,63.22
2023-04-15T13:03:48.156Z,63.50
2023-04-15T13:06:50.916Z,63.36
2023-04-15T13:09:53.224Z,63.25
2023-04-15T13:12:56.845Z,62.54
2023-04-15T13:16:01.504Z,63.01
2023-04-15T13:19:04.346Z,62.80
2023-04-15T13:22:08.368Z,63.24
2023-04-15T13:25:11.711Z,63.10
2023-04-15T13:28:14.109Z,62.79
2023-04-15T13:31:16.951Z,62.58
2023-04-15T13:34:19.692Z,63.05
2023-04-15T13:37:28.013Z,64.09
2023-04-15T13:40:31.412Z,64.19
2023-04-15T13:43:34.368Z,64.82
2023-04-15T13:46:37.853Z,64.71
2023-04-15T13:49:41.149Z,63.75
2023-04-15T13:52:43.574Z,62.75
2023-04-15T13:55:46.298Z,62.34
2023-04-15T13:58:48.685Z,61.90
2023-04-15T14:01:51.402Z,62.30
2023-04-15T14:04:54.097Z,63.13
2023-04-15T14:07:56.488Z,64.12
2023-04-15T14:10:59.352Z,64.15
2023-04-15T14:14:01.658Z,63.56
2023-04-15T14:17:05.461Z,63.84
2023-04-15T14:20:09.434Z,64.00
2023-04-15T14:23:12.077Z,63.71
2023-04-15T14:26:14.774Z,63.17
2023-04-15T14:29:17.970Z,62.40
2023-04-15T14:32:21.295Z,61.61
2023-04-15T14:35:26.562Z,62.09
2023-04-15T14:38:28.975Z,64.49
2023-04-15T14:41:31.580Z,64.59
2023-04-15T14:44:33.921Z,65.20
2023-04-15T14:47:36.644Z,66.49
2023-04-15T14:50:40.005Z,66.87
2023-04-15T14:53:42.633Z,67.08
2023-04-15T14:56:44.957Z,67.21
2023-04-15T14:59:47.634Z,67.30
2023-04-15T15:02:50.019Z,66.79
2023-04-15T15:05:52.918Z,66.61
2023-04-15T15:08:55.371Z,66.50
2023-04-15T15:11:58.305Z,66.19
2023-04-15T15:15:03.035Z,66.05
2023-04-15T15:18:07.864Z,65.82
2023-04-15T15:21:10.907Z,65.64
2023-04-15T15:24:13.589Z,64.13
2023-04-15T15:27:16.065Z,63.30
2023-04-15T15:30:18.799Z,63.15
2023-04-15T15:33:21.380Z,63.57
2023-04-15T15:36:24.459Z,63.37
2023-04-15T15:39:27.658Z,64.20
2023-04-15T15:42:32.359Z,64.70
2023-04-15T15:45:35.605Z,65.70
2023-04-15T15:48:38.272Z,66.43
2023-04-15T15:51:40.605Z,66.74
2023-04-15T15:54:43.736Z,67.36
2023-04-15T15:57:46.497Z,68.13
2023-04-15T16:00:49.483Z,68.53
2023-04-15T16:03:52.329Z,68.83
2023-04-15T16:06:54.833Z,69.87
2023-04-15T16:09:57.753Z,71.26
2023-04-15T16:13:00.265Z,71.58
2023-04-15T16:16:02.832Z,74.29
2023-04-15T16:19:05.851Z,76.37
2023-04-15T16:22:08.908Z,77.35
2023-04-15T16:25:11.374Z,78.60
2023-04-15T16:28:25.768Z,79.18
2023-04-15T16:31:30.040Z,79.32
2023-04-15T16:34:32.683Z,79.28
2023-04-15T16:37:36.222Z,78.76
2023-04-15T16:40:40.255Z,77.73
2023-04-15T16:43:43.689Z,78.04
2023-04-15T16:46:46.395Z,78.31
2023-04-15T16:49:48.735Z,77.32
2023-04-15T16:52:51.369Z,77.67
2023-04-15T16:55:53.923Z,77.20
2023-04-15T16:58:56.842Z,77.08
2023-04-15T17:01:59.545Z,77.98
2023-04-15T17:05:02.272Z,78.68
2023-04-15T17:08:05.775Z,78.64
2023-04-15T17:11:08.433Z,78.07
2023-04-15T17:14:10.963Z,78.68
2023-04-15T17:17:13.668Z,79.69
2023-04-15T17:20:17.477Z,80.45
2023-04-15T17:23:20.077Z,80.21
2023-04-15T17:26:22.407Z,80.27
2023-04-15T17:29:25.145Z,80.75
2023-04-15T17:32:31.840Z,81.33
2023-04-15T17:35:34.731Z,81.57
2023-04-15T17:38:37.138Z,81.57
2023-04-15T17:41:39.757Z,81.82
2023-04-15T17:44:42.138Z,81.98
2023-04-15T17:47:44.848Z,82.08
2023-04-15T17:50:47.531Z,81.96
2023-04-15T17:53:51.114Z,82.40
2023-04-15T17:56:54.031Z,82.53
2023-04-15T17:59:59.789Z,82.71
2023-04-15T18:03:02.366Z,82.72
2023-04-15T18:06:05.430Z,82.67
2023-04-15T18:09:09.100Z,82.64
2023-04-15T18:12:11.762Z,82.47
2023-04-15T18:15:14.607Z,82.38
2023-04-15T18:18:17.308Z,82.30
2023-04-15T18:21:19.722Z,82.34
2023-04-15T18:24:22.655Z,82.14
2023-04-15T18:27:25.001Z,82.11
2023-04-15T18:30:27.647Z,82.19
2023-04-15T18:33:30.002Z,82.06
2023-04-15T18:36:32.845Z,81.96
2023-04-15T18:39:35.316Z,81.64
2023-04-15T18:42:37.991Z,81.62
2023-04-15T18:45:40.561Z,81.54
2023-04-15T18:48:43.294Z,81.67
2023-04-15T18:51:45.664Z,81.46
2023-04-15T18:54:48.284Z,81.19
2023-04-15T18:57:51.414Z,81.02
2023-04-15T19:00:54.499Z,81.07
2023-04-15T19:03:57.323Z,81.07
2023-04-15T19:07:00.183Z,80.50
2023-04-15T19:10:04.452Z,80.70
2023-04-15T19:13:07.475Z,80.21
2023-04-15T19:16:09.813Z,80.41
2023-04-15T19:19:14.702Z,80.42
2023-04-15T19:22:17.195Z,80.66
2023-04-15T19:25:19.975Z,80.27
2023-04-15T19:28:22.349Z,80.54
2023-04-15T19:31:26.118Z,80.76
2023-04-15T19:34:28.522Z,80.44
2023-04-15T19:37:31.389Z,80.01
2023-04-15T19:40:33.892Z,79.67
2023-04-15T19:43:37.114Z,79.63
2023-04-15T19:46:40.415Z,79.59
2023-04-15T19:49:43.468Z,80.22
2023-04-15T19:52:45.956Z,79.93
2023-04-15T19:55:48.959Z,79.65
2023-04-15T19:58:53.115Z,79.49
2023-04-15T20:01:55.859Z,79.15
2023-04-15T20:04:58.574Z,78.87
2023-04-15T20:08:03.039Z,78.69
2023-04-15T20:11:05.837Z,78.98
2023-04-15T20:14:08.329Z,79.22
2023-04-15T20:17:11.176Z,80.29
2023-04-15T20:20:13.575Z,80.87
2023-04-15T20:23:16.270Z,81.15
2023-04-15T20:26:19.668Z,81.44
2023-04-15T20:29:22.419Z,81.26
2023-04-15T20:32:25.055Z,81.46
2023-04-15T20:35:30.926Z,80.87
2023-04-15T20:38:33.360Z,81.07
2023-04-15T20:41:36.068Z,81.05
2023-04-15T20:44:38.654Z,81.24
2023-04-15T20:47:41.626Z,81.43
2023-04-15T20:50:43.994Z,81.36
2023-04-15T20:53:46.719Z,81.23
2023-04-15T20:56:49.358Z,81.12
2023-04-15T20:59:52.156Z,80.89
2023-04-15T21:02:54.660Z,80.98
2023-04-15T21:05:57.409Z,81.79
2023-04-15T21:08:59.819Z,82.12
2023-04-15T21:12:02.587Z,82.32
2023-04-15T21:15:05.989Z,82.79
2023-04-15T21:18:08.625Z,82.99
2023-04-15T21:21:11.197Z,83.08
2023-04-15T21:24:13.841Z,83.21
2023-04-15T21:27:16.175Z,83.28
2023-04-15T21:30:18.853Z,83.19
2023-04-15T21:33:21.316Z,83.01
2023-04-15T21:36:23.943Z,82.87
2023-04-15T21:39:26.423Z,82.81
2023-04-15T21:42:30.006Z,82.89
2023-04-15T21:45:32.488Z,82.92
2023-04-15T21:48:35.440Z,82.77
2023-04-15T21:51:37.772Z,83.04
2023-04-15T21:54:40.362Z,83.09
2023-04-15T21:57:42.667Z,82.97
2023-04-15T22:00:45.471Z,83.08
2023-04-15T22:03:48.374Z,83.12
2023-04-15T22:06:52.245Z,82.99
2023-04-15T22:09:54.944Z,83.16
2023-04-15T22:13:01.480Z,83.26
2023-04-15T22:16:04.150Z,83.66
2023-04-15T22:19:06.699Z,83.36
2023-04-15T22:22:09.857Z,83.84
2023-04-15T22:25:12.542Z,83.53
2023-04-15T22:28:15.347Z,84.31
2023-04-15T22:31:17.681Z,84.70
2023-04-15T22:34:21.619Z,84.92
2023-04-15T22:37:24.298Z,85.26
2023-04-15T22:40:26.948Z,85.44
2023-04-15T22:43:29.318Z,85.77
2023-04-15T22:46:32.027Z,86.05
2023-04-15T22:49:35.208Z,86.33
2023-04-15T22:52:38.087Z,86.57
2023-04-15T22:55:44.048Z,86.63
2023-04-15T22:58:47.126Z,86.52
2023-04-15T23:01:49.707Z,86.66
2023-04-15T23:04:52.561Z,86.72
2023-04-15T23:07:55.020Z,86.40
2023-04-15T23:10:57.634Z,86.44
2023-04-15T23:13:59.966Z,86.21
2023-04-15T23:17:02.634Z,85.95
2023-04-15T23:20:05.742Z,86.24
2023-04-15T23:23:08.362Z,86.72
2023-04-15T23:26:10.653Z,86.89
2023-04-15T23:29:13.263Z,87.27
2023-04-15T23:32:15.562Z,87.41
2023-04-15T23:35:18.194Z,87.54
2023-04-15T23:38:20.572Z,87.18
2023-04-15T23:41:23.188Z,87.25
2023-04-15T23:44:25.591Z,87.18
2023-04-15T23:47:28.299Z,86.99
2023-04-15T23:50:30.757Z,87.03
2023-04-15T23:53:33.618Z,86.84
2023-04-15T23:56:36.479Z,86.86
2023-04-15T23:59:39.115Z,87.08
